Time;durP1;ratioP1;P1;durP2;ratioP2;P2;SDS_P1;SDS_P2;PMS_P1;PMS_P2;Temp;Humidity;BMP_temperature;BMP_pressure;BME280_temperature;BME280_humidity;BME280_pressure;Samples;Min_cycle;Max_cycle;Signal;HPM_P1;HPM_P2
2024/01/28 00:01:28;;;;;;;;;17.00;14.50;;;;;6.71;65.13;102409.66;5046289;28;45356;-61
2024/01/28 00:03:53;;;;;;;;;15.75;12.50;;;;;6.70;65.16;102406.19;5050835;28;58025;-61
2024/01/28 00:06:19;;;;;;;;;15.25;13.50;;;;;6.72;65.03;102396.66;5047021;28;74176;-61
2024/01/28 00:08:44;;;;;;;;;17.25;13.00;;;;;6.73;65.02;102392.34;5048750;28;75698;-61
2024/01/28 00:11:09;;;;;;;;;20.75;13.50;;;;;6.73;65.25;102393.22;5041252;28;71805;-61
2024/01/28 00:13:35;;;;;;;;;19.50;12.50;;;;;6.73;65.20;102374.13;5049072;28;66099;-61
2024/01/28 00:16:00;;;;;;;;;18.75;15.50;;;;;6.73;65.02;102366.31;5047734;28;62174;-60
2024/01/28 00:18:26;;;;;;;;;21.75;15.50;;;;;6.72;64.98;102361.97;5051069;28;45254;-60
2024/01/28 00:20:51;;;;;;;;;22.75;16.75;;;;;6.73;65.06;102361.13;5047589;28;45309;-59
2024/01/28 00:23:16;;;;;;;;;18.00;14.00;;;;;6.72;65.07;102349.84;5045702;28;45255;-59
2024/01/28 00:25:42;;;;;;;;;22.00;16.00;;;;;6.70;65.06;102343.75;5046134;28;45572;-58
2024/01/28 00:28:07;;;;;;;;;19.50;15.50;;;;;6.68;65.11;102337.66;5044459;28;45263;-60
2024/01/28 00:30:33;;;;;;;;;59.00;44.00;;;;;6.67;65.29;102342.81;5045989;28;45270;-61
2024/01/28 00:32:58;;;;;;;;;41.25;34.50;;;;;6.66;65.32;102336.75;5045586;28;45465;-61
2024/01/28 00:35:24;;;;;;;;;25.25;20.50;;;;;6.68;65.22;102334.19;5045088;28;45501;-61
2024/01/28 00:37:49;;;;;;;;;11.75;8.75;;;;;6.67;65.49;102335.88;5048051;28;45331;-61
2024/01/28 00:40:15;;;;;;;;;16.25;14.00;;;;;6.68;65.24;102344.59;5047350;28;45674;-62
2024/01/28 00:42:40;;;;;;;;;17.00;13.50;;;;;6.66;65.21;102339.34;5048191;28;45537;-62
2024/01/28 00:45:06;;;;;;;;;39.00;32.00;;;;;6.65;65.18;102343.66;5046970;28;73525;-62
2024/01/28 00:47:31;;;;;;;;;39.25;33.25;;;;;6.62;65.50;102346.25;5046615;28;46363;-62
2024/01/28 00:49:56;;;;;;;;;47.00;33.33;;;;;6.56;65.29;102345.25;5044095;28;72259;-62
2024/01/28 00:52:22;;;;;;;;;38.25;33.25;;;;;6.50;65.38;102342.53;5044102;28;69618;-59
2024/01/28 00:54:47;;;;;;;;;34.00;29.67;;;;;6.43;65.55;102349.41;5041309;28;72017;-60
2024/01/28 00:57:12;;;;;;;;;38.75;32.00;;;;;6.38;65.68;102343.25;5042362;28;74018;-61
2024/01/28 00:59:37;;;;;;;;;45.75;32.00;;;;;6.32;66.02;102336.22;5048814;28;73291;-61
2024/01/28 01:02:03;;;;;;;;;35.00;29.50;;;;;6.29;66.22;102336.16;5039774;28;60927;-61
2024/01/28 01:04:29;;;;;;;;;36.75;29.25;;;;;6.24;66.18;102330.03;5045262;28;45387;-61
2024/01/28 01:06:54;;;;;;;;;35.50;28.00;;;;;6.23;66.42;102318.75;5043220;28;45415;-61
2024/01/28 01:09:19;;;;;;;;;29.75;25.25;;;;;6.21;66.55;102324.75;5044820;28;64349;-61
2024/01/28 01:11:45;;;;;;;;;33.00;25.00;;;;;6.18;66.45;102323.00;5042242;28;68627;-61
2024/01/28 01:14:10;;;;;;;;;18.25;16.25;;;;;6.18;66.54;102325.59;5045564;28;45277;-61
2024/01/28 01:16:36;;;;;;;;;15.75;13.00;;;;;6.16;66.77;102318.59;5042704;28;45306;-59
2024/01/28 01:19:01;;;;;;;;;19.50;14.25;;;;;6.19;66.62;102326.47;5039308;28;60051;-61
2024/01/28 01:21:26;;;;;;;;;17.25;12.75;;;;;6.19;66.52;102326.47;5050882;28;45744;-61
2024/01/28 01:23:52;;;;;;;;;17.50;10.25;;;;;6.17;66.73;102320.38;5051153;28;73295;-60
2024/01/28 01:26:17;;;;;;;;;70.67;49.67;;;;;6.18;66.75;102322.09;5055224;28;68716;-61
2024/01/28 01:28:42;;;;;;;;;36.25;24.75;;;;;6.19;66.79;102321.25;5055207;28;70352;-60
2024/01/28 01:31:08;;;;;;;;;9.25;7.00;;;;;6.21;66.90;102324.75;5058447;28;45488;-59
2024/01/28 01:33:33;;;;;;;;;12.75;11.00;;;;;6.22;66.74;102324.78;5051604;28;73229;-59
2024/01/28 01:35:58;;;;;;;;;13.75;12.50;;;;;6.23;66.60;102320.47;5053898;28;69340;-58
2024/01/28 01:38:24;;;;;;;;;22.00;13.00;;;;;6.24;66.74;102307.47;5058432;28;45404;-61
2024/01/28 01:40:49;;;;;;;;;18.75;14.25;;;;;6.24;66.76;102286.69;5058929;28;53125;-61
2024/01/28 01:43:15;;;;;;;;;18.00;16.50;;;;;6.24;66.72;102286.69;5058970;28;46327;-61
2024/01/28 01:45:41;;;;;;;;;15.75;14.00;;;;;6.26;66.97;102271.97;5060297;28;47144;-61
2024/01/28 01:48:10;;;;;;;;;20.00;14.75;;;;;6.29;66.94;102285.91;5059168;28;45319;-61
2024/01/28 01:50:35;;;;;;;;;16.75;15.00;;;;;6.25;66.94;102277.16;5060975;28;45272;-61
2024/01/28 01:53:01;;;;;;;;;15.50;14.50;;;;;6.25;66.78;102279.75;5060208;28;45177;-61
2024/01/28 01:55:27;;;;;;;;;18.75;17.00;;;;;6.24;66.92;102283.22;5045128;28;73327;-63
2024/01/28 01:57:54;;;;;;;;;24.50;16.25;;;;;6.23;66.87;102278.84;5053947;28;45351;-61
2024/01/28 02:00:19;;;;;;;;;22.75;15.50;;;;;6.20;67.13;102276.25;5082523;27;45343;-61
2024/01/28 02:02:45;;;;;;;;;13.25;11.25;;;;;6.20;67.08;102269.31;5060063;28;45437;-61
2024/01/28 02:05:11;;;;;;;;;11.50;11.50;;;;;6.21;66.95;102278.84;5060131;28;47169;-61
2024/01/28 02:07:36;;;;;;;;;15.75;10.75;;;;;6.22;66.61;102274.53;5060045;28;45310;-61
2024/01/28 02:10:03;;;;;;;;;9.75;8.50;;;;;6.21;66.98;102276.22;5054930;28;59253;-61
2024/01/28 02:12:28;;;;;;;;;10.00;9.25;;;;;6.21;67.17;102268.44;5059042;28;45524;-61
2024/01/28 02:15:09;;;;;;;;;18.25;15.00;;;;;6.19;67.14;102258.88;5061615;28;45297;-61
2024/01/28 02:17:34;;;;;;;;;14.50;10.75;;;;;6.21;67.04;102262.38;5050660;28;45854;-61
2024/01/28 02:20:00;;;;;;;;;13.00;9.75;;;;;6.20;67.06;102258.03;5049413;27;45282;-62
2024/01/28 02:22:25;;;;;;;;;14.75;9.75;;;;;6.18;67.10;102264.91;5046468;28;73013;-61
2024/01/28 02:24:51;;;;;;;;;9.75;8.00;;;;;6.17;67.08;102264.03;5056200;28;74567;-61
2024/01/28 02:27:16;;;;;;;;;12.25;9.75;;;;;6.16;67.03;102261.41;5045619;28;45301;-61
2024/01/28 02:29:42;;;;;;;;;13.75;9.00;;;;;6.15;67.22;102260.56;5057258;28;59327;-62
2024/01/28 02:32:09;;;;;;;;;14.25;9.50;;;;;6.15;67.26;102252.75;5054987;28;45417;-62
2024/01/28 02:34:34;;;;;;;;;12.75;10.00;;;;;6.14;67.14;102250.13;5053923;28;46651;-60
2024/01/28 02:36:59;;;;;;;;;11.25;11.00;;;;;6.12;67.29;102252.69;5052894;28;73384;-60
2024/01/28 02:39:25;;;;;;;;;13.50;8.00;;;;;6.11;67.37;102247.47;5091318;27;45474;-60
2024/01/28 02:41:50;;;;;;;;;11.75;8.25;;;;;6.10;67.24;102245.75;5053979;28;72348;-60
2024/01/28 02:44:16;;;;;;;;;10.50;9.00;;;;;6.09;67.42;102247.44;5084977;27;74650;-60
2024/01/28 02:46:41;;;;;;;;;16.75;9.50;;;;;6.08;67.41;102238.78;5054852;28;45190;-61
2024/01/28 02:49:06;;;;;;;;;53.00;39.00;;;;;6.08;67.37;102235.31;5090564;27;58763;-61
2024/01/28 02:51:32;;;;;;;;;49.75;36.75;;;;;6.07;67.44;102231.84;5055167;28;45417;-61
2024/01/28 02:53:58;;;;;;;;;14.50;9.00;;;;;6.05;67.36;102233.53;5057725;28;70874;-61
2024/01/28 02:56:23;;;;;;;;;16.25;12.00;;;;;6.05;67.59;102233.53;5055759;28;45235;-61
2024/01/28 02:58:49;;;;;;;;;11.75;9.00;;;;;6.04;67.53;102234.41;5051974;28;45372;-61
2024/01/28 03:01:14;;;;;;;;;13.25;9.00;;;;;6.03;67.72;102221.38;5052202;28;72217;-61
2024/01/28 03:03:39;;;;;;;;;12.50;10.00;;;;;6.01;67.64;102228.28;5058656;28;46279;-61
2024/01/28 03:06:05;;;;;;;;;19.75;11.25;;;;;6.01;67.89;102226.53;5055462;28;69421;-61
2024/01/28 03:08:31;;;;;;;;;19.75;12.25;;;;;6.00;67.72;102217.00;5059632;28;45491;-61
2024/01/28 03:10:57;;;;;;;;;16.50;9.00;;;;;5.99;67.74;102206.59;5055838;28;73000;-61
2024/01/28 03:13:22;;;;;;;;;12.50;9.00;;;;;5.98;67.74;102203.09;5048369;28;46086;-61
2024/01/28 03:15:50;;;;;;;;;15.00;11.25;;;;;5.96;67.77;102202.19;5055754;28;72167;-61
2024/01/28 03:18:15;;;;;;;;;14.25;12.50;;;;;5.94;67.86;102198.69;5042244;28;45388;-61
2024/01/28 03:20:41;;;;;;;;;12.75;12.00;;;;;5.93;67.96;102194.31;5047344;28;45177;-61
2024/01/28 03:23:06;;;;;;;;;14.25;11.00;;;;;5.94;68.04;102200.41;5048856;28;46138;-61
2024/01/28 03:25:31;;;;;;;;;12.50;9.75;;;;;5.90;67.93;102195.16;5052161;28;70161;-61
2024/01/28 03:27:57;;;;;;;;;13.50;10.25;;;;;5.89;68.03;102185.59;5055255;28;68312;-61
2024/01/28 03:30:22;;;;;;;;;10.25;8.00;;;;;5.87;68.15;102171.72;5053481;28;51265;-60
2024/01/28 03:32:47;;;;;;;;;14.00;10.25;;;;;5.88;68.21;102175.22;5053555;28;54970;-61
2024/01/28 03:35:13;;;;;;;;;18.25;10.50;;;;;5.87;68.09;102171.72;5052353;28;72997;-61
2024/01/28 03:37:38;;;;;;;;;8.00;7.00;;;;;5.86;68.16;102171.69;5056744;28;45236;-61
2024/01/28 03:40:05;;;;;;;;;18.25;11.75;;;;;5.86;68.14;102175.19;5086538;27;68319;-61
2024/01/28 03:42:31;;;;;;;;;11.75;10.25;;;;;5.83;68.39;102180.31;5056322;28;47739;-59
2024/01/28 03:44:56;;;;;;;;;14.00;10.00;;;;;5.81;68.29;102178.56;5052631;28;45340;-60
2024/01/28 03:47:21;;;;;;;;;16.50;13.50;;;;;5.80;68.32;102171.63;5056259;28;45706;-60
2024/01/28 03:49:47;;;;;;;;;12.00;9.75;;;;;5.79;68.57;102175.03;5049948;28;65959;-60
2024/01/28 03:52:12;;;;;;;;;12.00;11.25;;;;;5.79;68.61;102177.66;5050062;28;75543;-59
2024/01/28 03:54:37;;;;;;;;;10.00;8.75;;;;;5.78;68.56;102168.13;5053729;28;62555;-60
2024/01/28 03:57:03;;;;;;;;;21.25;13.75;;;;;5.76;68.88;102169.81;5056741;28;69696;-60
2024/01/28 03:59:28;;;;;;;;;17.50;12.50;;;;;5.73;68.61;102170.63;5045783;28;45388;-60
2024/01/28 04:01:54;;;;;;;;;14.75;10.50;;;;;5.73;68.63;102169.75;5057841;28;47241;-60
2024/01/28 04:04:20;;;;;;;;;13.50;10.50;;;;;5.74;68.92;102168.91;5056747;28;54079;-60
2024/01/28 04:06:45;;;;;;;;;14.50;12.00;;;;;5.70;68.85;102158.50;5059341;28;45294;-61
2024/01/28 04:09:11;;;;;;;;;17.50;12.00;;;;;5.69;69.04;102161.06;5058418;28;45230;-60
2024/01/28 04:11:37;;;;;;;;;15.00;12.50;;;;;5.69;68.90;102161.91;5055287;28;45963;-61
2024/01/28 04:14:02;;;;;;;;;13.00;11.50;;;;;5.67;69.07;102158.44;5050774;28;45467;-60
2024/01/28 04:16:27;;;;;;;;;14.50;11.25;;;;;5.65;69.06;102157.53;5058379;28;45459;-60
2024/01/28 04:18:53;;;;;;;;;15.25;9.00;;;;;5.66;69.39;102161.84;5046140;28;72788;-60
2024/01/28 04:21:18;;;;;;;;;15.50;11.50;;;;;5.65;69.09;102154.06;5051592;28;45318;-60
2024/01/28 04:23:46;;;;;;;;;17.50;12.25;;;;;5.64;69.40;102147.13;5047927;28;73196;-60
2024/01/28 04:26:11;;;;;;;;;10.50;9.00;;;;;5.60;69.54;102146.19;5048378;28;45323;-60
2024/01/28 04:28:37;;;;;;;;;14.25;9.75;;;;;5.61;69.52;102145.34;5053644;28;72421;-60
2024/01/28 04:31:05;;;;;;;;;15.00;10.75;;;;;5.61;69.46;102141.88;5053246;28;47139;-60
2024/01/28 04:33:30;;;;;;;;;13.75;9.25;;;;;5.60;69.57;102151.38;5081787;27;45285;-60
2024/01/28 04:35:56;;;;;;;;;8.00;7.00;;;;;5.60;69.67;102153.97;5055256;28;61094;-61
2024/01/28 04:38:21;;;;;;;;;14.00;10.00;;;;;5.60;69.58;102145.31;5055984;28;45258;-60
2024/01/28 04:40:47;;;;;;;;;12.00;11.00;;;;;5.58;69.67;102147.91;5056224;28;46209;-59
2024/01/28 04:43:12;;;;;;;;;12.00;9.00;;;;;5.60;69.83;102135.81;5054464;28;49815;-62
2024/01/28 04:45:37;;;;;;;;;7.00;5.00;;;;;5.60;69.97;102140.13;5056835;28;45406;-60
2024/01/28 04:48:03;;;;;;;;;10.75;9.00;;;;;5.60;70.02;102142.72;5056929;28;45379;-61
2024/01/28 04:50:28;;;;;;;;;10.75;7.50;;;;;5.61;70.05;102145.34;5056952;28;46794;-58
2024/01/28 04:52:53;;;;;;;;;13.50;10.00;;;;;5.61;70.07;102140.16;5056788;28;72151;-59
2024/01/28 04:55:19;;;;;;;;;10.25;8.00;;;;;5.61;69.98;102140.16;5055856;28;68812;-59
2024/01/28 04:57:44;;;;;;;;;14.00;10.25;;;;;5.61;70.01;102141.88;5057631;28;72133;-60
2024/01/28 05:00:10;;;;;;;;;12.25;8.75;;;;;5.61;69.98;102136.66;5044506;28;71002;-60
2024/01/28 05:02:37;;;;;;;;;12.25;10.50;;;;;5.60;70.16;102130.63;5058460;28;45849;-61
2024/01/28 05:05:02;;;;;;;;;13.00;11.50;;;;;5.60;70.10;102129.75;5045405;28;45396;-60
2024/01/28 05:07:27;;;;;;;;;12.00;10.00;;;;;5.60;69.93;102133.22;5058519;28;45322;-60
2024/01/28 05:09:53;;;;;;;;;13.25;13.00;;;;;5.56;70.12;102131.41;5053932;28;74557;-60
2024/01/28 05:12:18;;;;;;;;;17.00;11.75;;;;;5.56;70.12;102135.72;5050025;28;60543;-60
2024/01/28 05:14:45;;;;;;;;;18.25;11.00;;;;;5.56;70.27;102136.63;5056932;28;45460;-60
2024/01/28 05:17:11;;;;;;;;;13.75;10.50;;;;;5.55;70.29;102129.66;5056959;28;45429;-60
2024/01/28 05:19:36;;;;;;;;;14.50;11.00;;;;;5.54;70.40;102133.09;5044636;28;75520;-60
2024/01/28 05:22:01;;;;;;;;;10.75;9.75;;;;;5.53;70.40;102136.56;5048509;28;62392;-60
2024/01/28 05:24:27;;;;;;;;;17.00;12.00;;;;;5.50;70.26;102142.56;5052354;28;45160;-61
2024/01/28 05:26:52;;;;;;;;;14.75;11.25;;;;;5.51;70.43;102141.72;5055726;28;45356;-61
2024/01/28 05:29:18;;;;;;;;;13.50;9.75;;;;;5.51;70.41;102144.31;5086030;27;47019;-60
2024/01/28 05:31:43;;;;;;;;;15.25;8.00;;;;;5.51;70.51;102133.06;5056701;28;48684;-60
2024/01/28 05:34:08;;;;;;;;;16.25;8.00;;;;;5.53;70.54;102144.34;5044677;28;68678;-61
2024/01/28 05:36:34;;;;;;;;;14.00;9.00;;;;;5.51;70.64;102141.72;5055848;28;45501;-61
2024/01/28 05:38:59;;;;;;;;;12.75;8.25;;;;;5.51;70.66;102140.84;5052040;28;45497;-61
2024/01/28 05:41:24;;;;;;;;;9.50;9.50;;;;;5.53;70.50;102146.06;5055845;28;45384;-61
2024/01/28 05:43:50;;;;;;;;;15.50;11.50;;;;;5.54;70.56;102145.22;5052600;28;65533;-61
2024/01/28 05:46:15;;;;;;;;;10.00;8.25;;;;;5.53;70.81;102153.88;5055139;28;73248;-61
2024/01/28 05:48:41;;;;;;;;;11.00;8.50;;;;;5.53;70.93;102135.69;5053052;28;47415;-60
2024/01/28 05:51:06;;;;;;;;;16.25;8.75;;;;;5.52;70.69;102137.38;5053999;28;71991;-61
2024/01/28 05:53:31;;;;;;;;;14.75;9.50;;;;;5.50;70.89;102139.97;5052689;28;69341;-60
2024/01/28 05:55:56;;;;;;;;;13.25;8.75;;;;;5.49;71.05;102138.22;5056590;28;45383;-58
2024/01/28 05:58:22;;;;;;;;;10.25;8.00;;;;;5.49;71.16;102138.22;5049489;28;75320;-60
2024/01/28 06:00:48;;;;;;;;;11.00;8.75;;;;;5.51;71.15;102138.25;5049521;28;45382;-58
2024/01/28 06:03:13;;;;;;;;;15.00;9.00;;;;;5.51;71.42;102138.25;5054309;28;45242;-61
2024/01/28 06:05:38;;;;;;;;;8.25;8.00;;;;;5.56;71.47;102126.22;5055896;28;45468;-61
2024/01/28 06:08:05;;;;;;;;;12.00;10.00;;;;;5.59;71.53;102128.84;5045266;28;73587;-61
2024/01/28 06:10:31;;;;;;;;;9.00;8.75;;;;;5.64;71.44;102127.19;5056658;28;45789;-61
2024/01/28 06:12:56;;;;;;;;;13.50;10.00;;;;;5.66;71.43;102133.28;5055633;28;69457;-61
2024/01/28 06:15:21;;;;;;;;;13.25;9.25;;;;;5.67;71.46;102135.06;5060247;28;45366;-61
2024/01/28 06:17:47;;;;;;;;;7.50;7.00;;;;;5.68;71.59;102134.22;5055090;28;45449;-61
2024/01/28 06:20:12;;;;;;;;;15.50;9.50;;;;;5.70;71.73;102123.81;5050985;28;51867;-61
2024/01/28 06:22:37;;;;;;;;;18.00;9.25;;;;;5.70;71.17;102116.94;5046676;28;61228;-61
2024/01/28 06:25:03;;;;;;;;;8.25;4.00;;;;;5.73;71.81;102115.22;5056781;28;45453;-61
2024/01/28 06:27:29;;;;;;;;;11.25;8.75;;;;;5.70;71.45;102116.03;5055359;28;46914;-61
2024/01/28 06:29:55;;;;;;;;;11.00;9.00;;;;;5.69;71.61;102117.75;5059127;28;45342;-61
2024/01/28 06:32:22;;;;;;;;;15.00;9.50;;;;;5.68;71.54;102117.75;5088723;27;45387;-61
2024/01/28 06:34:47;;;;;;;;;15.00;11.50;;;;;5.67;71.54;102116.88;5054138;28;45266;-61
2024/01/28 06:37:13;;;;;;;;;14.25;11.75;;;;;5.65;71.71;102110.78;5055610;28;46112;-61
2024/01/28 06:39:38;;;;;;;;;20.00;14.50;;;;;5.62;71.76;102102.06;5058231;28;66363;-60
2024/01/28 06:42:04;;;;;;;;;11.75;11.00;;;;;5.63;71.92;102090.81;5042529;28;54895;-60
2024/01/28 06:44:31;;;;;;;;;12.50;9.50;;;;;5.67;72.53;102087.44;5051399;28;45514;-60
2024/01/28 06:46:56;;;;;;;;;17.75;12.00;;;;;5.73;73.19;102069.34;5056125;28;46411;-60
2024/01/28 06:49:22;;;;;;;;;20.50;9.00;;;;;5.77;72.12;102076.34;5058988;28;45363;-60
2024/01/28 06:51:47;;;;;;;;;12.25;8.00;;;;;5.76;71.68;102081.50;5045580;28;45287;-60
2024/01/28 06:54:12;;;;;;;;;10.25;8.00;;;;;5.67;71.51;102070.13;5058982;28;45526;-60
2024/01/28 06:56:38;;;;;;;;;16.50;10.00;;;;;5.64;71.66;102071.81;5056604;28;45376;-61
2024/01/28 06:59:03;;;;;;;;;9.25;9.00;;;;;5.60;71.62;102067.41;5047682;28;72180;-60
2024/01/28 07:01:29;;;;;;;;;13.25;9.75;;;;;5.56;71.67;102068.22;5055973;28;45214;-58
2024/01/28 07:03:54;;;;;;;;;14.00;12.00;;;;;5.53;71.68;102069.03;5060000;28;45519;-58
2024/01/28 07:06:20;;;;;;;;;11.00;8.75;;;;;5.49;71.55;102064.66;5058278;28;45476;-59
2024/01/28 07:08:45;;;;;;;;;9.00;8.75;;;;;5.46;71.91;102062.88;5059962;28;45275;-61
2024/01/28 07:11:11;;;;;;;;;10.75;9.00;;;;;5.42;71.75;102062.78;5057938;28;45480;-61
2024/01/28 07:13:36;;;;;;;;;12.50;8.50;;;;;5.35;72.07;102061.84;5059332;28;45410;-61
2024/01/28 07:16:01;;;;;;;;;11.00;8.00;;;;;5.33;71.90;102056.63;5048647;28;46768;-61
2024/01/28 07:18:27;;;;;;;;;12.00;7.00;;;;;5.28;72.19;102063.47;5051690;28;45294;-61
2024/01/28 07:20:52;;;;;;;;;14.00;10.25;;;;;5.27;72.40;102058.25;5050807;28;65733;-61
2024/01/28 07:23:17;;;;;;;;;15.25;10.50;;;;;5.26;72.30;102057.38;5048139;28;70086;-61
2024/01/28 07:25:43;;;;;;;;;9.00;9.00;;;;;5.22;72.41;102065.94;5051970;28;70814;-61
2024/01/28 07:28:08;;;;;;;;;11.25;9.00;;;;;5.22;72.48;102071.13;5056994;28;52956;-60
2024/01/28 07:30:33;;;;;;;;;11.00;8.50;;;;;5.19;72.50;102072.81;5069160;28;45729;-61
2024/01/28 07:32:59;;;;;;;;;17.25;8.75;;;;;5.18;72.73;102078.84;5051942;28;73194;-61
2024/01/28 07:35:24;;;;;;;;;14.25;11.00;;;;;5.17;72.82;102083.19;5082844;27;74573;-61
2024/01/28 07:37:49;;;;;;;;;13.25;10.50;;;;;5.18;72.91;102078.84;5056888;28;73182;-61
2024/01/28 07:40:16;;;;;;;;;11.75;10.75;;;;;5.20;72.92;102074.56;5054008;28;45322;-61
2024/01/28 07:42:41;;;;;;;;;12.50;9.25;;;;;5.21;73.01;102078.91;5057523;28;48931;-61
2024/01/28 07:45:07;;;;;;;;;15.00;10.00;;;;;5.21;72.91;102081.50;5052331;28;49948;-60
2024/01/28 07:47:32;;;;;;;;;14.25;11.00;;;;;5.23;73.19;102085.00;5057291;28;45231;-61
2024/01/28 07:49:59;;;;;;;;;13.00;11.25;;;;;5.21;72.95;102079.78;5044979;28;45252;-61
2024/01/28 07:52:24;;;;;;;;;21.50;9.50;;;;;5.23;72.93;102080.69;5057567;28;45258;-61
2024/01/28 07:54:49;;;;;;;;;11.25;11.25;;;;;5.24;73.16;102076.34;5053987;28;75132;-61
2024/01/28 07:57:14;;;;;;;;;13.50;11.50;;;;;5.25;73.07;102080.72;5057002;28;71533;-61
2024/01/28 07:59:40;;;;;;;;;17.50;13.00;;;;;5.27;73.16;102090.25;5044660;28;58722;-61
2024/01/28 08:02:05;;;;;;;;;16.75;13.00;;;;;5.28;73.20;102085.97;5048978;28;72092;-60
2024/01/28 08:04:30;;;;;;;;;14.75;11.50;;;;;5.29;73.12;102085.09;5051610;28;51581;-60
2024/01/28 08:06:56;;;;;;;;;14.00;13.75;;;;;5.31;73.16;102089.47;5055740;28;45277;-59
2024/01/28 08:09:21;;;;;;;;;12.75;8.25;;;;;5.35;73.19;102093.00;5054216;28;68965;-59
2024/01/28 08:11:46;;;;;;;;;15.75;10.50;;;;;5.39;73.31;102088.72;5057737;28;68480;-61
2024/01/28 08:14:12;;;;;;;;;12.00;12.00;;;;;5.42;73.26;102080.97;5056191;28;47233;-61
2024/01/28 08:16:37;;;;;;;;;16.00;12.50;;;;;5.45;73.22;102076.72;5058083;28;45339;-61
2024/01/28 08:19:04;;;;;;;;;20.00;11.75;;;;;5.48;73.25;102083.69;5045317;28;60962;-61
2024/01/28 08:21:30;;;;;;;;;9.75;9.00;;;;;5.51;73.22;102084.59;5051722;28;45231;-61
2024/01/28 08:23:55;;;;;;;;;17.25;13.75;;;;;5.52;72.99;102077.66;5048949;28;46527;-61
2024/01/28 08:26:21;;;;;;;;;18.25;12.00;;;;;5.55;73.09;102071.66;5055015;28;73001;-61
2024/01/28 08:28:46;;;;;;;;;17.50;6.00;;;;;5.61;73.19;102079.53;5050678;28;68178;-61
2024/01/28 08:31:12;;;;;;;;;12.25;11.75;;;;;5.64;73.12;102088.25;5055641;28;45655;-61
2024/01/28 08:33:37;;;;;;;;;14.75;11.75;;;;;5.69;73.08;102088.34;5048718;28;46259;-61
2024/01/28 08:36:03;;;;;;;;;17.75;12.50;;;;;5.74;72.99;102083.19;5054889;28;45544;-60
2024/01/28 08:38:30;;;;;;;;;17.25;12.75;;;;;5.77;72.94;102085.84;5054409;28;45199;-60
2024/01/28 08:40:55;;;;;;;;;16.00;12.00;;;;;5.79;72.80;102079.81;5053346;28;45210;-61
2024/01/28 08:43:21;;;;;;;;;15.75;12.25;;;;;5.84;72.87;102080.78;5054024;28;45405;-61
2024/01/28 08:45:46;;;;;;;;;17.75;12.00;;;;;5.87;72.88;102075.59;5056118;28;68336;-61
2024/01/28 08:48:11;;;;;;;;;18.00;14.00;;;;;5.93;72.71;102082.59;5052624;28;45474;-62
2024/01/28 08:50:37;;;;;;;;;15.00;13.25;;;;;5.99;72.76;102080.13;5035518;28;55276;-60
2024/01/28 08:53:04;;;;;;;;;18.00;13.00;;;;;6.04;72.46;102085.41;5054448;28;46224;-60
2024/01/28 08:55:29;;;;;;;;;13.00;12.50;;;;;6.11;72.35;102083.72;5057392;28;45448;-60
2024/01/28 08:57:54;;;;;;;;;14.25;12.50;;;;;6.15;72.42;102081.22;5044491;28;45252;-60
2024/01/28 09:00:20;;;;;;;;;16.00;14.00;;;;;6.20;72.18;102079.53;5040876;28;55296;-60
2024/01/28 09:02:45;;;;;;;;;11.50;7.75;;;;;6.24;72.06;102080.47;5050673;28;46562;-60
2024/01/28 09:05:10;;;;;;;;;13.00;11.75;;;;;6.31;71.95;102084.00;5056071;28;45379;-60
2024/01/28 09:07:36;;;;;;;;;12.50;10.25;;;;;6.34;71.71;102079.72;5055191;28;45356;-59
2024/01/28 09:10:02;;;;;;;;;21.25;14.75;;;;;6.37;71.72;102068.47;5057160;28;45500;-60
2024/01/28 09:12:27;;;;;;;;;18.00;15.50;;;;;6.39;71.73;102065.06;5055028;28;46361;-59
2024/01/28 09:14:52;;;;;;;;;17.50;13.00;;;;;6.41;71.68;102065.94;5053810;28;73428;-60
2024/01/28 09:17:18;;;;;;;;;17.75;14.00;;;;;6.45;71.71;102059.91;5055375;28;47707;-58
2024/01/28 09:19:43;;;;;;;;;16.25;12.25;;;;;6.49;71.27;102057.34;5046281;28;45495;-60
2024/01/28 09:22:09;;;;;;;;;22.00;13.00;;;;;6.53;71.46;102057.38;5046816;28;69899;-58
2024/01/28 09:24:34;;;;;;;;;18.25;12.50;;;;;6.56;71.34;102052.22;5086811;27;72240;-59
2024/01/28 09:27:01;;;;;;;;;15.50;14.00;;;;;6.61;71.43;102060.09;5052550;28;64356;-62
2024/01/28 09:29:27;;;;;;;;;19.75;13.50;;;;;6.64;71.17;102048.00;5052788;28;45459;-60
2024/01/28 09:31:53;;;;;;;;;23.00;15.00;;;;;6.71;71.28;102050.63;5043421;28;46071;-60
2024/01/28 09:34:18;;;;;;;;;15.50;11.50;;;;;6.76;71.15;102046.34;5049198;28;45321;-61
2024/01/28 09:36:43;;;;;;;;;20.00;13.50;;;;;6.81;71.04;102044.66;5055093;28;45336;-61
2024/01/28 09:39:10;;;;;;;;;12.75;10.00;;;;;6.84;70.93;102055.97;5055428;28;45608;-60
2024/01/28 09:41:43;;;;;;;;;18.00;13.50;;;;;6.90;70.78;102057.75;5043999;28;46085;-61
2024/01/28 09:44:08;;;;;;;;;19.50;15.25;;;;;6.96;70.49;102051.78;5054157;28;45322;-60
2024/01/28 09:46:34;;;;;;;;;21.25;13.75;;;;;6.97;70.11;102046.56;5050441;28;45313;-60
2024/01/28 09:48:59;;;;;;;;;17.50;12.25;;;;;7.01;70.28;102048.34;5070509;28;70475;-60
2024/01/28 09:51:25;;;;;;;;;17.25;14.00;;;;;7.04;70.03;102043.13;5056288;28;45323;-60
2024/01/28 09:53:50;;;;;;;;;15.50;11.50;;;;;7.07;69.98;102044.06;5038659;28;45221;-61
2024/01/28 09:56:17;;;;;;;;;18.50;15.00;;;;;7.13;69.92;102044.09;5057813;28;45518;-60
2024/01/28 09:58:43;;;;;;;;;24.00;18.50;;;;;7.18;69.68;102043.25;5052718;28;45223;-61
2024/01/28 10:01:12;;;;;;;;;16.50;14.50;;;;;7.27;69.56;102036.41;5053843;28;45401;-61
2024/01/28 10:03:37;;;;;;;;;23.25;14.50;;;;;7.32;69.70;102050.31;5059202;28;45298;-61
2024/01/28 10:06:04;;;;;;;;;15.00;11.25;;;;;7.39;69.33;102057.31;5056485;28;45296;-61
2024/01/28 10:08:30;;;;;;;;;14.50;8.50;;;;;7.46;69.23;102056.50;5059834;28;45466;-61
2024/01/28 10:10:55;;;;;;;;;19.00;14.50;;;;;7.53;69.28;102052.22;5057413;28;47243;-61
2024/01/28 10:13:21;;;;;;;;;13.50;12.25;;;;;7.62;68.90;102054.03;5059417;28;72638;-61
2024/01/28 10:15:55;;;;;;;;;17.00;15.00;;;;;7.70;68.97;102047.09;5058366;28;69334;-61
2024/01/28 10:18:24;;;;;;;;;21.00;18.25;;;;;7.79;68.73;102055.84;5053863;28;45603;-61
2024/01/28 10:20:50;;;;;;;;;20.75;15.00;;;;;7.87;68.48;102055.91;5052163;28;45482;-61
2024/01/28 10:23:16;;;;;;;;;18.00;14.75;;;;;7.98;68.24;102066.38;5051406;28;45336;-61
2024/01/28 10:25:42;;;;;;;;;21.25;15.25;;;;;8.05;67.80;102064.69;5053860;28;45391;-60
2024/01/28 10:28:08;;;;;;;;;20.50;14.50;;;;;8.11;67.92;102062.97;5049707;28;45423;-60
2024/01/28 10:30:33;;;;;;;;;20.50;16.00;;;;;8.19;67.75;102063.00;5084186;27;75741;-60
2024/01/28 10:32:59;;;;;;;;;19.25;15.75;;;;;8.27;67.70;102063.03;5055455;28;71240;-60
2024/01/28 10:35:25;;;;;;;;;27.25;16.50;;;;;8.34;67.56;102062.22;5053151;28;45295;-60
2024/01/28 10:37:55;;;;;;;;;18.50;16.25;;;;;8.42;67.16;102070.94;5058467;28;45216;-59
2024/01/28 10:40:23;;;;;;;;;17.25;16.00;;;;;8.48;67.25;102067.47;5089086;27;45473;-59
2024/01/28 10:42:49;;;;;;;;;20.00;14.50;;;;;8.50;66.73;102068.38;5057046;28;45776;-58
2024/01/28 10:45:18;;;;;;;;;18.75;17.00;;;;;8.58;66.86;102068.41;5054541;28;45299;-59
2024/01/28 10:47:54;;;;;;;;;16.50;14.25;;;;;8.61;66.70;102066.66;5058696;28;45408;-60
2024/01/28 10:50:21;;;;;;;;;19.00;16.75;;;;;8.65;66.45;102055.34;5053313;28;46325;-60
2024/01/28 10:52:47;;;;;;;;;21.00;15.25;;;;;8.65;66.34;102046.66;5058444;28;45289;-62
2024/01/28 10:55:13;;;;;;;;;21.75;15.75;;;;;8.71;66.07;102052.78;5056645;28;45341;-59
2024/01/28 10:57:39;;;;;;;;;22.75;17.25;;;;;8.73;65.91;102042.34;5056569;28;45490;-60
2024/01/28 11:00:06;;;;;;;;;18.75;16.00;;;;;8.76;65.98;102042.31;5044593;28;45396;-61
2024/01/28 11:02:32;;;;;;;;;18.00;17.25;;;;;8.79;66.05;102038.88;5057777;28;45279;-61
2024/01/28 11:04:58;;;;;;;;;27.75;19.25;;;;;8.76;65.80;102031.88;5055447;28;45571;-61
2024/01/28 11:07:24;;;;;;;;;16.75;11.75;;;;;8.82;65.81;102031.91;5090532;27;67387;-60
2024/01/28 11:09:51;;;;;;;;;23.75;18.00;;;;;8.87;65.64;102024.97;5056765;28;45285;-60
2024/01/28 11:12:17;;;;;;;;;26.00;20.50;;;;;8.93;65.41;102022.34;5057722;28;45389;-60